Time;durP1;ratioP1;P1;durP2;ratioP2;P2;SDS_P1;SDS_P2;PMS_P1;PMS_P2;Temp;Humidity;BMP_temperature;BMP_pressure;BME280_temperature;BME280_humidity;BME280_pressure;Samples;Min_cycle;Max_cycle;Signal;HPM_P1;HPM_P2
2022/01/21 00:01:09;;;;;;;16.48;2.40;;;1.40;99.90;;;;;;5019864;28;20080;-81
2022/01/21 00:03:35;;;;;;;14.85;2.63;;;1.30;99.90;;;;;;5020290;28;20045;-81
2022/01/21 00:06:01;;;;;;;11.75;2.20;;;1.30;99.90;;;;;;5003711;28;20059;-81
2022/01/21 00:08:27;;;;;;;14.52;2.60;;;1.20;99.90;;;;;;5036991;28;20557;-81
2022/01/21 00:10:53;;;;;;;13.23;2.50;;;1.80;99.90;;;;;;5035417;28;20080;-81
2022/01/21 00:13:33;;;;;;;12.95;2.33;;;1.20;99.90;;;;;;5020145;28;20072;-81
2022/01/21 00:16:00;;;;;;;17.25;2.88;;;1.20;99.90;;;;;;5005263;28;20053;-81
2022/01/21 00:18:25;;;;;;;17.13;3.20;;;1.10;99.90;;;;;;5020039;28;20040;-81
2022/01/21 00:31:48;;;;;;;14.90;3.00;;;1.10;99.90;;;;;;5022269;28;20127;-81
2022/01/21 00:34:13;;;;;;;16.52;2.78;;;1.10;99.90;;;;;;5003715;28;20124;-81
2022/01/21 00:36:39;;;;;;;16.38;3.13;;;1.10;99.90;;;;;;5019585;28;20105;-81
2022/01/21 00:39:05;;;;;;;18.50;2.90;;;1.60;99.90;;;;;;5003394;28;20053;-81
2022/01/21 00:41:35;;;;;;;18.83;2.95;;;1.20;99.90;;;;;;5018488;28;20104;-81
2022/01/21 00:44:01;;;;;;;16.35;2.85;;;1.10;99.90;;;;;;5035937;28;20477;-81
2022/01/21 00:46:27;;;;;;;16.73;2.75;;;1.50;99.90;;;;;;5003084;28;20048;-81
2022/01/21 00:48:53;;;;;;;17.95;3.00;;;1.70;99.90;;;;;;5035806;28;20477;-81
2022/01/21 00:51:19;;;;;;;15.10;2.72;;;1.20;99.90;;;;;;5035582;28;20114;-81
2022/01/21 00:53:44;;;;;;;18.80;3.50;;;1.20;99.90;;;;;;5035937;28;20055;-81
2022/01/21 00:56:10;;;;;;;15.35;3.30;;;1.20;99.90;;;;;;5001981;28;20044;-81
2022/01/21 00:58:36;;;;;;;20.35;3.50;;;1.60;99.90;;;;;;5002720;28;20059;-81
2022/01/21 01:01:02;;;;;;;15.30;3.20;;;1.30;99.90;;;;;;5019212;28;20045;-81
2022/01/21 01:03:28;;;;;;;21.10;3.45;;;1.40;99.90;;;;;;5018612;28;20079;-81
2022/01/21 01:05:54;;;;;;;21.17;3.17;;;2.00;99.90;;;;;;5015761;28;20073;-81
2022/01/21 01:08:19;;;;;;;20.95;2.97;;;1.40;99.90;;;;;;4999325;28;20045;-81
2022/01/21 01:11:13;;;;;;;20.80;3.08;;;1.40;99.90;;;;;;5014806;28;20041;-81
2022/01/21 01:21:49;;;;;;;18.88;2.72;;;1.50;99.90;;;;;;4988140;28;20408;-81
2022/01/21 01:29:44;;;;;;;19.20;2.78;;;1.60;99.90;;;;;;4987799;28;20041;-81
2022/01/21 01:32:09;;;;;;;18.27;2.40;;;1.60;99.90;;;;;;4999019;28;20038;-81
2022/01/21 01:34:35;;;;;;;15.98;2.10;;;2.00;99.90;;;;;;4999364;28;20041;-81
2022/01/21 01:37:07;;;;;;;14.23;2.20;;;1.60;99.90;;;;;;4999019;28;20075;-81
2022/01/21 01:39:40;;;;;;;13.65;2.13;;;1.70;99.90;;;;;;5032161;28;20083;-81
2022/01/21 01:50:26;;;;;;;12.45;2.03;;;1.70;99.90;;;;;;5034870;28;20099;-80
2022/01/21 01:52:52;;;;;;;12.77;1.98;;;1.70;99.90;;;;;;5018622;28;20436;-80
2022/01/21 01:55:17;;;;;;;16.58;2.13;;;1.70;99.90;;;;;;5029870;28;20100;-80
2022/01/21 01:57:44;;;;;;;14.45;2.40;;;1.70;99.90;;;;;;4998254;28;20521;-81
2022/01/21 02:00:10;;;;;;;15.93;2.30;;;1.80;99.90;;;;;;5015200;28;20046;-81
2022/01/21 02:02:36;;;;;;;11.40;2.10;;;1.70;99.90;;;;;;4982254;28;20041;-81
2022/01/21 02:05:01;;;;;;;14.80;2.30;;;1.70;99.90;;;;;;5015367;28;20095;-81
2022/01/21 02:07:27;;;;;;;13.43;2.22;;;1.70;99.90;;;;;;4999025;28;20079;-81
2022/01/21 02:09:53;;;;;;;14.32;2.22;;;1.70;99.90;;;;;;4999039;28;20030;-81
2022/01/21 02:12:18;;;;;;;17.52;2.40;;;1.70;99.90;;;;;;4997754;28;20467;-81
2022/01/21 02:14:50;;;;;;;15.25;2.65;;;1.70;99.90;;;;;;5016597;28;20160;-81
2022/01/21 02:22:43;;;;;;;13.50;2.40;;;1.60;99.90;;;;;;5024506;28;20087;-81
2022/01/21 02:25:18;;;;;;;14.80;2.45;;;1.60;99.90;;;;;;5021985;28;20128;-81
2022/01/21 02:27:53;;;;;;;17.83;2.72;;;1.60;99.90;;;;;;5022763;28;20120;-82
2022/01/21 02:30:21;;;;;;;17.65;2.60;;;1.70;99.90;;;;;;5022150;28;20041;-82
2022/01/21 02:32:54;;;;;;;18.17;2.85;;;1.60;99.90;;;;;;5038470;28;20076;-82
2022/01/21 02:35:22;;;;;;;18.27;2.47;;;1.60;99.90;;;;;;5038336;28;20528;-81
2022/01/21 02:37:48;;;;;;;19.70;3.00;;;1.60;99.90;;;;;;5021977;28;20045;-81
2022/01/21 02:40:15;;;;;;;17.30;2.83;;;1.60;99.90;;;;;;5038020;28;20037;-81
2022/01/21 02:42:42;;;;;;;20.70;2.65;;;1.60;99.90;;;;;;5037698;28;20045;-81
2022/01/21 02:45:09;;;;;;;20.25;2.67;;;1.50;99.90;;;;;;5022040;28;20438;-81
2022/01/21 02:47:35;;;;;;;16.50;2.83;;;1.50;99.90;;;;;;5021626;28;20041;-82
2022/01/21 02:50:01;;;;;;;19.50;2.30;;;1.50;99.90;;;;;;5021626;28;20047;-82
2022/01/21 02:52:29;;;;;;;16.42;2.55;;;1.60;99.90;;;;;;5037942;28;20393;-81
2022/01/21 02:54:55;;;;;;;13.80;2.30;;;1.60;99.90;;;;;;5038002;28;20049;-81
2022/01/21 02:57:21;;;;;;;13.43;2.20;;;1.60;99.90;;;;;;5036956;28;20067;-81
2022/01/21 02:59:49;;;;;;;13.70;2.35;;;2.30;99.90;;;;;;5005134;28;20053;-81
2022/01/21 03:02:15;;;;;;;18.73;2.55;;;1.70;99.90;;;;;;5004906;28;20040;-81
2022/01/21 03:07:10;;;;;;;10.50;2.03;;;1.60;99.90;;;;;;5037955;28;20074;-81
2022/01/21 03:09:35;;;;;;;16.27;2.00;;;1.70;99.90;;;;;;5021363;28;20037;-81
2022/01/21 03:12:01;;;;;;;11.48;1.98;;;1.70;99.90;;;;;;5036541;28;20504;-81
2022/01/21 03:14:27;;;;;;;10.73;1.67;;;1.70;99.90;;;;;;5021282;28;20067;-81
2022/01/21 03:16:53;;;;;;;12.00;1.90;;;1.70;99.90;;;;;;5020985;28;20427;-81
2022/01/21 03:19:19;;;;;;;12.15;1.77;;;1.70;99.90;;;;;;5037870;28;20099;-81
2022/01/21 03:21:44;;;;;;;13.05;1.88;;;1.60;99.90;;;;;;5004650;28;20045;-81
2022/01/21 03:24:11;;;;;;;10.52;1.73;;;1.60;99.90;;;;;;5037286;28;20044;-81
2022/01/21 03:26:36;;;;;;;10.95;1.60;;;2.20;99.90;;;;;;5019504;28;20037;-81
2022/01/21 03:29:04;;;;;;;8.27;1.70;;;1.70;99.90;;;;;;5037341;28;20178;-81
2022/01/21 03:31:31;;;;;;;10.80;1.58;;;2.30;99.90;;;;;;5020763;28;20489;-81
2022/01/21 03:33:59;;;;;;;11.48;1.70;;;1.80;99.90;;;;;;5021145;28;20396;-81
2022/01/21 03:36:27;;;;;;;9.85;1.65;;;1.70;99.90;;;;;;5020574;28;20078;-81
2022/01/21 03:38:53;;;;;;;9.63;1.55;;;1.70;99.90;;;;;;5037327;28;20045;-81
2022/01/21 03:41:18;;;;;;;13.00;1.60;;;1.70;99.90;;;;;;5019551;28;20049;-81
2022/01/21 03:43:44;;;;;;;11.80;1.75;;;1.70;99.90;;;;;;5037015;28;20528;-81
2022/01/21 03:46:10;;;;;;;9.90;1.70;;;1.70;99.90;;;;;;5033287;28;20041;-81
2022/01/21 03:48:36;;;;;;;9.88;1.70;;;1.80;99.90;;;;;;5000985;28;20056;-81
2022/01/21 03:51:02;;;;;;;13.70;2.00;;;1.70;99.90;;;;;;5016978;28;20052;-81
2022/01/21 03:53:28;;;;;;;10.98;1.65;;;1.80;99.90;;;;;;5001136;28;20560;-81
2022/01/21 03:55:54;;;;;;;12.50;1.90;;;1.70;99.90;;;;;;4983637;28;20128;-81
2022/01/21 03:58:20;;;;;;;11.00;1.92;;;1.70;99.90;;;;;;5000677;28;20053;-81
2022/01/21 04:00:48;;;;;;;13.80;1.70;;;1.70;99.90;;;;;;5017025;28;20107;-81
2022/01/21 04:03:14;;;;;;;10.25;1.80;;;1.80;99.90;;;;;;5000665;28;20076;-81
2022/01/21 04:05:41;;;;;;;16.58;2.10;;;1.80;99.90;;;;;;5033537;28;20045;-81
2022/01/21 04:08:10;;;;;;;12.80;1.70;;;2.20;99.90;;;;;;5000768;28;20041;-81
2022/01/21 04:10:39;;;;;;;12.98;1.70;;;1.80;99.90;;;;;;4999449;28;20045;-81
2022/01/21 04:13:11;;;;;;;10.35;1.63;;;2.30;99.90;;;;;;5017328;28;20567;-81
2022/01/21 04:15:37;;;;;;;12.38;1.90;;;2.10;99.90;;;;;;5003080;28;20045;-81
2022/01/21 04:18:02;;;;;;;11.35;1.73;;;1.80;99.90;;;;;;5020050;28;20049;-81
2022/01/21 04:20:28;;;;;;;12.75;1.80;;;1.80;99.90;;;;;;5019762;28;20072;-81
2022/01/21 04:22:54;;;;;;;9.88;1.50;;;1.70;99.90;;;;;;5020075;28;20037;-81
2022/01/21 04:25:20;;;;;;;14.48;1.80;;;2.20;99.90;;;;;;5035503;28;20049;-82
2022/01/21 04:27:46;;;;;;;13.98;1.70;;;1.80;99.90;;;;;;5019723;28;20033;-82
2022/01/21 04:30:12;;;;;;;8.52;1.55;;;1.70;99.90;;;;;;5019832;28;20048;-82
2022/01/21 04:32:38;;;;;;;9.18;1.60;;;1.70;99.90;;;;;;5019742;28;20123;-82
2022/01/21 04:35:05;;;;;;;9.88;1.70;;;1.70;99.90;;;;;;5003258;28;20044;-82
2022/01/21 04:37:31;;;;;;;10.07;1.80;;;1.60;99.90;;;;;;5036130;28;20116;-82
2022/01/21 04:47:38;;;;;;;9.38;1.70;;;1.60;99.90;;;;;;5036162;28;20052;-81
2022/01/21 04:50:10;;;;;;;8.25;1.70;;;1.60;99.90;;;;;;5019564;28;20044;-81
2022/01/21 04:52:35;;;;;;;10.88;1.90;;;1.60;99.90;;;;;;5003731;28;20048;-81
2022/01/21 04:55:01;;;;;;;15.25;1.85;;;1.70;99.90;;;;;;5019326;28;20405;-81
2022/01/21 04:57:29;;;;;;;10.02;1.45;;;1.70;99.90;;;;;;5002056;28;20477;-81
2022/01/21 04:59:54;;;;;;;11.75;1.60;;;1.70;99.90;;;;;;5019169;28;20139;-81
2022/01/21 05:02:21;;;;;;;11.18;1.63;;;1.70;99.90;;;;;;5019153;28;20049;-81
2022/01/21 05:04:47;;;;;;;10.75;1.60;;;1.70;99.90;;;;;;5019080;28;20040;-81
2022/01/21 05:07:18;;;;;;;8.13;1.42;;;1.70;99.90;;;;;;5018986;28;20045;-81
2022/01/21 05:09:44;;;;;;;10.68;1.48;;;1.70;99.90;;;;;;5003628;28;20037;-81
2022/01/21 05:12:11;;;;;;;9.30;1.60;;;1.70;99.90;;;;;;5017865;28;20546;-81
2022/01/21 05:17:18;;;;;;;8.15;1.50;;;1.70;99.90;;;;;;5020878;28;20059;-81
2022/01/21 05:19:44;;;;;;;12.35;1.92;;;1.90;99.90;;;;;;5035376;28;20497;-81
2022/01/21 05:22:10;;;;;;;13.32;1.80;;;1.70;99.90;;;;;;5018735;28;20409;-81
2022/01/21 05:24:35;;;;;;;9.57;1.77;;;1.60;99.90;;;;;;5018840;28;20128;-81
2022/01/21 05:27:01;;;;;;;9.95;1.50;;;1.60;99.90;;;;;;5034257;28;20037;-81
2022/01/21 05:29:32;;;;;;;10.63;1.80;;;1.60;99.90;;;;;;5035214;28;20033;-81
2022/01/21 05:31:59;;;;;;;17.48;1.98;;;1.60;99.90;;;;;;5018581;28;20044;-81
2022/01/21 05:34:26;;;;;;;11.50;1.77;;;1.50;99.90;;;;;;5018831;28;20127;-81
2022/01/21 05:36:52;;;;;;;13.55;1.92;;;1.50;99.90;;;;;;5018820;28;20515;-81
2022/01/21 05:39:19;;;;;;;11.30;2.13;;;1.50;99.90;;;;;;5035207;28;20123;-81
2022/01/21 05:41:48;;;;;;;13.20;1.98;;;1.40;99.90;;;;;;5034114;28;20049;-81
2022/01/21 05:46:22;;;;;;;12.75;1.67;;;2.50;99.90;;;;;;5015240;28;20463;-81
2022/01/21 05:47:04;;;;;;;14.77;2.03;;;2.10;99.90;;;;;;5031766;28;20549;-81
2022/01/21 05:49:33;;;;;;;13.73;2.47;;;1.40;99.90;;;;;;5018364;28;20449;-81
2022/01/21 05:54:54;;;;;;;15.05;2.25;;;1.40;99.90;;;;;;5004807;28;20049;-81
2022/01/21 05:57:20;;;;;;;13.50;2.40;;;1.90;99.90;;;;;;4988321;28;20063;-81
2022/01/21 05:59:49;;;;;;;12.18;1.80;;;1.40;99.90;;;;;;5021650;28;20046;-81
2022/01/21 06:02:15;;;;;;;14.13;2.08;;;1.70;99.90;;;;;;5005480;28;20045;-81
2022/01/21 06:04:43;;;;;;;16.45;2.25;;;1.40;99.90;;;;;;5038058;28;20038;-81
2022/01/21 06:07:09;;;;;;;13.80;2.33;;;1.40;99.90;;;;;;5021532;28;20523;-81
2022/01/21 06:09:37;;;;;;;12.48;2.38;;;1.70;99.90;;;;;;5021715;28;20052;-81
2022/01/21 06:12:04;;;;;;;14.25;2.45;;;1.40;99.90;;;;;;4972639;28;20393;-81
2022/01/21 06:14:30;;;;;;;18.60;2.40;;;1.30;99.90;;;;;;4989380;28;20571;-81
2022/01/21 06:16:56;;;;;;;18.40;2.40;;;1.30;99.90;;;;;;5005336;28;20069;-81
2022/01/21 06:19:21;;;;;;;16.52;2.33;;;1.30;99.90;;;;;;5005270;28;20056;-81
2022/01/21 06:21:47;;;;;;;18.13;2.47;;;1.40;99.90;;;;;;4972903;28;20107;-81
2022/01/21 06:24:13;;;;;;;15.70;2.40;;;1.30;99.90;;;;;;5021455;28;20041;-81
2022/01/21 06:26:39;;;;;;;17.48;2.25;;;1.30;99.90;;;;;;5004214;28;20042;-81
2022/01/21 06:29:05;;;;;;;13.32;1.92;;;1.30;99.90;;;;;;5005183;28;20515;-81
2022/01/21 06:31:31;;;;;;;16.63;2.40;;;2.00;99.90;;;;;;4972905;28;20041;-81
2022/01/21 06:33:58;;;;;;;17.77;2.30;;;1.30;99.90;;;;;;5021439;28;20041;-81
2022/01/21 06:36:24;;;;;;;13.48;2.15;;;1.30;99.90;;;;;;5021463;28;20042;-81
2022/01/21 06:38:50;;;;;;;16.27;2.30;;;1.30;99.90;;;;;;5037937;28;20076;-81
2022/01/21 06:41:16;;;;;;;13.80;2.22;;;1.40;99.90;;;;;;4972088;28;20135;-81
2022/01/21 06:43:42;;;;;;;16.13;2.40;;;1.40;99.90;;;;;;5037857;28;20124;-81
2022/01/21 06:46:09;;;;;;;12.88;2.20;;;1.40;99.90;;;;;;5037614;28;20089;-81
2022/01/21 06:48:35;;;;;;;14.98;2.30;;;2.20;99.90;;;;;;5038225;28;20128;-81
2022/01/21 06:51:01;;;;;;;14.20;2.17;;;1.30;99.90;;;;;;5021396;28;20080;-81
2022/01/21 06:53:26;;;;;;;14.82;2.17;;;1.40;99.90;;;;;;5021372;28;20042;-81
2022/01/21 06:55:53;;;;;;;15.98;2.10;;;2.00;99.90;;;;;;5003908;28;20095;-81
2022/01/21 06:58:18;;;;;;;19.38;2.15;;;2.30;99.90;;;;;;5021138;28;20037;-81
2022/01/21 07:00:45;;;;;;;17.42;2.17;;;2.10;99.90;;;;;;5003056;28;20126;-81
2022/01/21 07:03:11;;;;;;;11.43;2.20;;;2.40;99.90;;;;;;5001769;28;20509;-81
2022/01/21 07:05:37;;;;;;;16.58;2.13;;;1.60;99.90;;;;;;5025971;28;20062;-81
2022/01/21 07:08:04;;;;;;;13.70;2.33;;;1.70;99.90;;;;;;5021787;28;20413;-81
2022/01/21 07:10:30;;;;;;;15.40;2.30;;;1.70;99.90;;;;;;5004210;28;20443;-81
2022/01/21 07:12:57;;;;;;;12.50;2.03;;;1.70;99.90;;;;;;5037727;28;20041;-81
2022/01/21 07:15:23;;;;;;;13.02;1.95;;;1.70;99.90;;;;;;5031244;28;20048;-81
2022/01/21 07:17:52;;;;;;;15.38;2.00;;;1.60;99.90;;;;;;5037103;28;20048;-81
2022/01/21 07:20:19;;;;;;;15.40;2.17;;;1.60;99.90;;;;;;5037378;28;20098;-81
2022/01/21 07:22:44;;;;;;;12.90;2.30;;;2.50;99.90;;;;;;5037479;28;20049;-81
2022/01/21 07:25:11;;;;;;;12.57;2.17;;;2.70;99.90;;;;;;5020816;28;20519;-81
2022/01/21 07:27:37;;;;;;;16.67;2.38;;;1.60;99.90;;;;;;5020112;28;20056;-81
2022/01/21 07:30:04;;;;;;;14.75;2.28;;;1.60;99.90;;;;;;5020941;28;20037;-81
2022/01/21 07:32:30;;;;;;;14.50;1.90;;;1.60;99.90;;;;;;5037243;28;20041;-81
2022/01/21 07:34:56;;;;;;;13.75;2.13;;;1.50;99.90;;;;;;5037353;28;20073;-81
2022/01/21 07:37:22;;;;;;;15.23;2.00;;;1.50;99.90;;;;;;5020584;28;20123;-81
2022/01/21 07:39:47;;;;;;;12.18;2.20;;;2.20;99.90;;;;;;5037538;28;20075;-81
2022/01/21 07:42:13;;;;;;;9.95;1.98;;;1.50;99.90;;;;;;5019445;28;20041;-81
2022/01/21 07:44:39;;;;;;;14.45;2.08;;;1.50;99.90;;;;;;5020345;28;20503;-81
2022/01/21 07:47:05;;;;;;;16.70;2.03;;;1.50;99.90;;;;;;5036872;28;20076;-81
2022/01/21 07:49:31;;;;;;;13.50;2.30;;;1.40;99.90;;;;;;5037341;28;20127;-81
2022/01/21 07:51:57;;;;;;;16.15;2.20;;;1.40;99.90;;;;;;5020615;28;20044;-81
2022/01/21 07:54:23;;;;;;;17.08;2.28;;;1.40;99.90;;;;;;5020804;28;20124;-81
2022/01/21 07:56:48;;;;;;;13.20;2.25;;;1.40;99.90;;;;;;5019349;28;20048;-81
2022/01/21 07:59:15;;;;;;;16.35;2.10;;;1.40;99.90;;;;;;5020292;28;20060;-81
2022/01/21 08:01:42;;;;;;;20.35;2.47;;;1.40;99.90;;;;;;5036969;28;20508;-81
2022/01/21 08:04:08;;;;;;;13.95;2.33;;;1.70;99.90;;;;;;5020355;28;20516;-81
2022/01/21 08:06:34;;;;;;;14.18;2.17;;;1.40;99.90;;;;;;5020337;28;20052;-81
2022/01/21 08:09:00;;;;;;;14.18;2.25;;;1.40;99.90;;;;;;5004136;28;20504;-81
2022/01/21 08:11:27;;;;;;;16.55;2.45;;;1.40;99.90;;;;;;5035726;28;20124;-81
2022/01/21 08:13:53;;;;;;;17.55;2.40;;;1.40;99.90;;;;;;5019775;28;20090;-81
2022/01/21 08:16:19;;;;;;;15.85;2.67;;;2.30;99.90;;;;;;5020274;28;20052;-81
2022/01/21 08:18:45;;;;;;;16.90;2.13;;;1.50;99.90;;;;;;5020169;28;20037;-81
2022/01/21 08:21:18;;;;;;;16.65;2.22;;;1.60;99.90;;;;;;5019491;28;20040;-81
2022/01/21 08:23:45;;;;;;;17.30;2.30;;;1.60;99.90;;;;;;5036654;28;20404;-81
2022/01/21 08:26:11;;;;;;;17.05;2.28;;;2.10;99.90;;;;;;5019103;28;20571;-81
2022/01/21 08:28:36;;;;;;;18.70;2.90;;;1.70;99.90;;;;;;5019855;28;20037;-81
2022/01/21 08:31:02;;;;;;;14.32;2.38;;;1.80;99.90;;;;;;5019616;28;20037;-81
2022/01/21 08:33:28;;;;;;;17.00;2.83;;;1.80;99.90;;;;;;5036084;28;20084;-81
2022/01/21 08:35:54;;;;;;;13.95;3.13;;;1.80;99.90;;;;;;5002764;28;20053;-81
2022/01/21 08:38:21;;;;;;;12.80;2.42;;;1.80;99.90;;;;;;5019385;28;20041;-81
2022/01/21 08:40:48;;;;;;;13.70;2.35;;;2.20;99.90;;;;;;5001172;28;20072;-81
2022/01/21 08:43:14;;;;;;;16.27;2.47;;;1.90;99.90;;;;;;5019168;28;20029;-81
2022/01/21 08:45:40;;;;;;;15.35;2.38;;;1.90;99.90;;;;;;5019251;28;20036;-81
2022/01/21 08:48:05;;;;;;;15.13;2.35;;;2.00;99.90;;;;;;5036224;28;20094;-81
2022/01/21 08:50:31;;;;;;;13.10;2.42;;;2.10;99.90;;;;;;5015804;28;20033;-81
2022/01/21 08:53:08;;;;;;;14.93;2.35;;;2.20;99.90;;;;;;5027466;28;20409;-81
2022/01/21 08:55:34;;;;;;;16.58;2.70;;;2.10;99.90;;;;;;5019898;28;20041;-81
2022/01/21 08:58:00;;;;;;;13.63;2.40;;;2.20;99.90;;;;;;5035846;28;20539;-81
2022/01/21 09:00:26;;;;;;;15.80;2.30;;;2.30;99.90;;;;;;5018977;28;20064;-81
2022/01/21 09:02:53;;;;;;;12.88;2.30;;;2.40;99.90;;;;;;5035317;28;20041;-81
2022/01/21 09:05:19;;;;;;;14.10;2.50;;;2.60;99.90;;;;;;5021372;28;20094;-81
2022/01/21 09:07:45;;;;;;;14.63;2.05;;;2.70;99.90;;;;;;5019599;28;20048;-81
2022/01/21 09:10:12;;;;;;;12.05;2.20;;;3.40;99.90;;;;;;5002824;28;20119;-81
2022/01/21 09:12:38;;;;;;;16.45;2.80;;;2.80;99.90;;;;;;5018570;28;20489;-81
2022/01/21 09:15:06;;;;;;;12.10;2.15;;;2.80;99.90;;;;;;5018355;28;20032;-81
2022/01/21 09:17:34;;;;;;;13.13;2.40;;;2.80;99.90;;;;;;5019471;28;20033;-81
2022/01/21 09:20:00;;;;;;;12.52;2.30;;;2.80;99.90;;;;;;5035852;28;20484;-81
2022/01/21 09:22:25;;;;;;;11.30;2.22;;;2.80;99.90;;;;;;5000079;28;20044;-81
2022/01/21 09:24:51;;;;;;;15.77;2.80;;;2.80;99.90;;;;;;5017030;28;20040;-81
2022/01/21 09:27:17;;;;;;;15.60;2.95;;;2.90;99.90;;;;;;5033061;28;20029;-81
2022/01/21 09:29:43;;;;;;;12.90;2.60;;;2.70;99.90;;;;;;5016248;28;20120;-81
2022/01/21 09:32:09;;;;;;;11.70;2.45;;;2.80;99.90;;;;;;5001002;28;20029;-81
2022/01/21 09:34:35;;;;;;;14.63;2.42;;;3.00;99.90;;;;;;5015189;28;20042;-81
2022/01/21 09:37:01;;;;;;;16.35;2.40;;;2.80;99.90;;;;;;5031321;28;20049;-81
2022/01/21 09:39:29;;;;;;;16.05;2.40;;;2.80;99.90;;;;;;5050860;28;20052;-81
2022/01/21 09:42:00;;;;;;;12.35;2.33;;;2.80;99.90;;;;;;5016640;28;20041;-81
2022/01/21 09:44:27;;;;;;;17.60;2.80;;;3.40;99.90;;;;;;5018153;28;20076;-81
2022/01/21 09:46:56;;;;;;;16.92;3.00;;;2.90;99.90;;;;;;5035157;28;20041;-81
2022/01/21 09:51:54;;;;;;;15.88;2.85;;;2.80;99.90;;;;;;5050821;28;20484;-81
2022/01/21 09:54:22;;;;;;;12.63;2.67;;;2.90;99.90;;;;;;5038100;28;20083;-81
2022/01/21 09:56:48;;;;;;;13.90;2.47;;;2.90;99.90;;;;;;5017335;28;20049;-81
2022/01/21 09:59:20;;;;;;;18.95;2.83;;;2.90;99.90;;;;;;5018473;28;20065;-81
2022/01/21 10:01:52;;;;;;;12.93;2.78;;;2.90;99.90;;;;;;5014988;28;20488;-81
2022/01/21 10:04:20;;;;;;;19.92;3.00;;;3.00;99.90;;;;;;5026897;28;20056;-81
2022/01/21 10:06:46;;;;;;;14.80;3.22;;;3.00;99.90;;;;;;5032414;28;20055;-81
2022/01/21 10:09:14;;;;;;;15.15;3.17;;;3.10;99.90;;;;;;5032427;28;20045;-81
2022/01/21 10:11:46;;;;;;;20.15;3.30;;;3.10;99.90;;;;;;5042286;28;20048;-81
2022/01/21 10:14:12;;;;;;;13.20;2.70;;;3.20;99.90;;;;;;5016780;28;20106;-81
2022/01/21 10:16:38;;;;;;;20.83;3.70;;;3.20;99.90;;;;;;5032552;28;20040;-81
2022/01/21 10:19:07;;;;;;;15.57;3.20;;;3.20;99.90;;;;;;5032697;28;20050;-81
2022/01/21 10:21:39;;;;;;;17.55;2.90;;;3.20;99.90;;;;;;5032189;28;20155;-81
2022/01/21 10:24:10;;;;;;;16.73;2.90;;;3.30;99.90;;;;;;5029581;28;20036;-81
2022/01/21 10:26:47;;;;;;;18.55;3.17;;;3.30;99.90;;;;;;5015306;28;20040;-81
2022/01/21 10:29:13;;;;;;;18.48;2.70;;;3.30;99.90;;;;;;5016034;28;20041;-81
2022/01/21 10:31:53;;;;;;;17.20;3.30;;;3.40;99.90;;;;;;5016162;28;20492;-81
2022/01/21 10:34:49;;;;;;;15.23;2.75;;;3.40;99.90;;;;;;5047889;28;20116;-81
2022/01/21 10:37:26;;;;;;;17.23;3.33;;;4.00;99.90;;;;;;5031857;28;20057;-81
2022/01/21 10:40:02;;;;;;;17.05;3.10;;;3.50;99.90;;;;;;5019728;28;20094;-81
2022/01/21 10:42:28;;;;;;;12.95;2.75;;;3.60;99.90;;;;;;5034753;28;20049;-81
2022/01/21 10:44:54;;;;;;;20.00;3.28;;;4.20;99.90;;;;;;5052541;28;20033;-81
2022/01/21 10:47:29;;;;;;;15.55;3.00;;;3.70;99.90;;;;;;5023342;28;20039;-81
2022/01/21 10:50:04;;;;;;;22.52;3.08;;;3.60;99.90;;;;;;5020544;28;20124;-81
2022/01/21 10:52:39;;;;;;;19.45;3.17;;;3.70;99.90;;;;;;5040740;28;20045;-81
2022/01/21 10:55:24;;;;;;;12.80;2.85;;;3.70;99.90;;;;;;5019243;28;20048;-81
2022/01/21 10:58:03;;;;;;;18.27;3.20;;;3.70;99.90;;;;;;5032404;28;20043;-81
2022/01/21 11:00:29;;;;;;;18.02;3.20;;;3.70;99.90;;;;;;5034459;28;20045;-81
2022/01/21 11:02:55;;;;;;;17.52;3.25;;;3.80;99.90;;;;;;5033839;28;20140;-81
2022/01/21 11:05:22;;;;;;;14.50;2.63;;;3.90;99.90;;;;;;4985543;28;20133;-81
2022/01/21 11:07:57;;;;;;;14.00;3.10;;;3.80;99.90;;;;;;5018921;28;20091;-80
2022/01/21 11:10:32;;;;;;;18.10;2.90;;;3.80;99.90;;;;;;5034539;28;20033;-80
2022/01/21 11:13:12;;;;;;;18.00;3.15;;;3.90;99.90;;;;;;5017531;28;20032;-80
2022/01/21 11:15:48;;;;;;;17.48;3.00;;;3.90;99.90;;;;;;5033974;28;20090;-81
2022/01/21 11:18:17;;;;;;;16.02;3.20;;;3.90;99.90;;;;;;5038051;28;20460;-81
2022/01/21 11:20:47;;;;;;;17.33;3.30;;;4.00;99.90;;;;;;5034539;28;20541;-81
2022/01/21 11:23:14;;;;;;;18.27;2.97;;;4.00;99.90;;;;;;5021470;28;20098;-81
2022/01/21 11:25:47;;;;;;;13.18;2.63;;;4.00;99.90;;;;;;5028025;28;20124;-81
2022/01/21 11:28:35;;;;;;;23.30;3.60;;;4.00;99.90;;;;;;5020641;28;20125;-81
2022/01/21 11:31:01;;;;;;;17.75;3.13;;;4.10;99.90;;;;;;5037492;28;20045;-81
2022/01/21 11:33:27;;;;;;;16.90;3.17;;;4.10;99.90;;;;;;5019716;28;20036;-81
2022/01/21 11:35:53;;;;;;;18.33;3.30;;;4.30;99.90;;;;;;5036446;28;20091;-81
2022/01/21 11:38:20;;;;;;;17.10;2.92;;;4.20;99.90;;;;;;4997027;28;20396;-81
2022/01/21 11:40:49;;;;;;;18.58;3.35;;;4.20;99.90;;;;;;5035409;28;20040;-81
2022/01/21 11:43:16;;;;;;;15.27;2.70;;;5.20;99.90;;;;;;5036433;28;20570;-81
2022/01/21 11:51:40;;;;;;;19.92;3.17;;;4.40;99.90;;;;;;5051619;28;20045;-81
2022/01/21 11:54:13;;;;;;;21.52;3.60;;;4.50;99.90;;;;;;5014890;28;20040;-81
2022/01/21 11:56:46;;;;;;;19.52;3.47;;;4.60;99.90;;;;;;5018945;28;20052;-81
2022/01/21 11:59:59;;;;;;;20.88;3.50;;;4.70;99.90;;;;;;5020105;28;20409;-81
2022/01/21 12:02:30;;;;;;;17.00;3.17;;;4.80;99.90;;;;;;5028608;28;20199;-81
2022/01/21 12:05:08;;;;;;;17.85;3.28;;;4.80;99.90;;;;;;5017026;28;20038;-81
2022/01/21 12:07:34;;;;;;;15.00;3.28;;;4.80;99.90;;;;;;5007030;28;20533;-81
2022/01/21 12:10:08;;;;;;;21.65;3.70;;;5.20;99.90;;;;;;5000715;28;20086;-81
2022/01/21 12:12:57;;;;;;;19.58;5.03;;;4.80;99.90;;;;;;5034997;28;20037;-81
2022/01/21 12:21:01;;;;;;;24.65;4.57;;;4.90;99.90;;;;;;5029692;28;20045;-81
2022/01/21 12:23:29;;;;;;;24.75;5.53;;;4.90;99.90;;;;;;5014413;28;20571;-81
2022/01/21 12:26:13;;;;;;;22.48;4.75;;;4.90;99.90;;;;;;5000477;28;20068;-81
2022/01/21 12:28:59;;;;;;;23.63;4.13;;;5.00;99.90;;;;;;5034549;28;20036;-81
2022/01/21 12:31:52;;;;;;;28.52;4.55;;;5.10;99.90;;;;;;5015115;28;20114;-81
2022/01/21 12:34:18;;;;;;;20.30;4.60;;;5.10;99.90;;;;;;5031268;28;20583;-81
2022/01/21 12:36:49;;;;;;;23.85;5.18;;;5.20;99.90;;;;;;5013316;28;20037;-82
2022/01/21 12:39:54;;;;;;;20.27;4.60;;;5.20;99.90;;;;;;5014278;28;20049;-82
2022/01/21 12:42:19;;;;;;;22.52;4.45;;;5.30;99.90;;;;;;5029552;28;20131;-82
2022/01/21 12:44:46;;;;;;;22.20;4.78;;;5.50;99.90;;;;;;5035091;28;20129;-82
2022/01/21 12:47:30;;;;;;;21.35;4.60;;;5.40;99.90;;;;;;5016806;28;20059;-82
2022/01/21 12:49:57;;;;;;;21.80;4.22;;;5.40;99.90;;;;;;5030311;28;20041;-82
2022/01/21 12:52:48;;;;;;;20.65;4.57;;;5.50;99.90;;;;;;4998844;28;20041;-82
2022/01/21 12:55:56;;;;;;;24.98;4.32;;;5.60;99.90;;;;;;5010545;28;20051;-81
2022/01/21 12:58:38;;;;;;;23.45;4.20;;;5.60;99.90;;;;;;5015535;28;20057;-81
2022/01/21 13:01:06;;;;;;;19.23;4.18;;;5.60;99.90;;;;;;5013292;28;20044;-81
2022/01/21 13:03:55;;;;;;;24.00;4.25;;;5.60;99.90;;;;;;5013099;28;20038;-81
2022/01/21 13:06:36;;;;;;;19.90;3.85;;;5.60;99.90;;;;;;5014284;28;20087;-81
2022/01/21 13:09:17;;;;;;;18.20;3.90;;;5.70;99.90;;;;;;5033826;28;20590;-81
2022/01/21 13:11:54;;;;;;;20.05;3.80;;;5.70;99.90;;;;;;5011961;28;20116;-81
2022/01/21 13:17:00;;;;;;;23.23;3.55;;;5.80;99.90;;;;;;5029494;28;20512;-81
2022/01/21 13:19:27;;;;;;;22.20;3.67;;;5.80;99.90;;;;;;5010910;28;20052;-81
2022/01/21 13:21:53;;;;;;;19.52;3.97;;;6.10;99.90;;;;;;5030682;28;20053;-81
2022/01/21 13:24:30;;;;;;;15.88;2.88;;;5.90;99.90;;;;;;4999374;28;20099;-81
2022/01/21 13:26:58;;;;;;;15.52;3.28;;;5.90;99.90;;;;;;5024735;28;20033;-81
2022/01/21 13:29:37;;;;;;;21.33;3.28;;;6.00;99.90;;;;;;5031746;28;20132;-81
2022/01/21 13:32:05;;;;;;;15.18;2.80;;;6.00;99.90;;;;;;5001843;28;20033;-81
2022/01/21 13:34:40;;;;;;;15.82;2.65;;;6.00;99.90;;;;;;4993366;28;20119;-82
2022/01/21 13:37:09;;;;;;;17.02;2.58;;;6.10;99.90;;;;;;5032045;28;20095;-81
2022/01/21 13:39:41;;;;;;;21.58;2.70;;;6.10;99.90;;;;;;5028937;28;20511;-81
2022/01/21 13:42:10;;;;;;;17.52;2.80;;;6.20;99.90;;;;;;5015688;28;20049;-81
2022/01/21 13:44:44;;;;;;;19.35;2.80;;;6.20;99.90;;;;;;5029510;28;20558;-81
2022/01/21 13:47:45;;;;;;;15.43;2.58;;;6.20;99.90;;;;;;5013445;28;20037;-81
2022/01/21 13:50:15;;;;;;;18.55;2.50;;;6.20;99.90;;;;;;4981412;28;20045;-81
2022/01/21 13:52:52;;;;;;;20.67;3.20;;;6.20;99.90;;;;;;5029454;28;20033;-81
2022/01/21 13:55:44;;;;;;;13.45;2.75;;;6.20;99.90;;;;;;5016725;28;20124;-81
2022/01/21 13:58:22;;;;;;;17.73;2.60;;;6.20;99.90;;;;;;5016901;28;20033;-81
2022/01/21 14:00:53;;;;;;;14.93;2.65;;;6.20;99.90;;;;;;5027653;28;20048;-81
2022/01/21 14:03:23;;;;;;;13.52;2.65;;;6.20;99.90;;;;;;5040793;28;20037;-81
2022/01/21 14:05:58;;;;;;;18.15;3.00;;;6.30;99.90;;;;;;5034549;28;20040;-81
2022/01/21 14:08:29;;;;;;;19.00;3.10;;;6.40;99.90;;;;;;5035030;28;20044;-81